Time;durP1;ratioP1;P1;durP2;ratioP2;P2;SDS_P1;SDS_P2;PMS_P1;PMS_P2;Temp;Humidity;BMP_temperature;BMP_pressure;BME280_temperature;BME280_humidity;BME280_pressure;Samples;Min_cycle;Max_cycle;Signal;HPM_P1;HPM_P2
2023/02/18 00:01:22;;;;;;;5.03;1.30;;;7.10;99.90;;;;;;7376986;19;20304;-83
2023/02/18 00:03:48;;;;;;;2.65;1.23;;;7.20;99.90;;;;;;7375174;19;20438;-79
2023/02/18 00:06:17;;;;;;;2.53;1.23;;;7.10;99.90;;;;;;7376313;19;20945;-81
2023/02/18 00:08:43;;;;;;;2.08;1.00;;;7.10;99.90;;;;;;7382940;19;20369;-79
2023/02/18 00:11:09;;;;;;;3.28;1.08;;;7.10;99.90;;;;;;7378486;19;21224;-79
2023/02/18 00:13:35;;;;;;;1.13;1.03;;;7.10;99.90;;;;;;7380815;19;20320;-80
2023/02/18 00:16:10;;;;;;;4.05;1.20;;;7.00;99.90;;;;;;7382497;19;20458;-77
2023/02/18 00:18:36;;;;;;;3.30;1.20;;;7.00;99.90;;;;;;7380819;19;20344;-78
2023/02/18 00:21:03;;;;;;;2.25;1.20;;;7.00;99.90;;;;;;7379751;19;20344;-80
2023/02/18 00:23:29;;;;;;;3.00;1.40;;;7.00;99.90;;;;;;7381743;19;20308;-77
2023/02/18 00:26:14;;;;;;;4.37;1.43;;;6.90;99.90;;;;;;7382083;19;20722;-77
2023/02/18 00:28:40;;;;;;;1.57;1.20;;;6.80;99.90;;;;;;7281036;19;2004608;-78
2023/02/18 00:31:13;;;;;;;1.90;1.00;;;6.80;99.90;;;;;;7381163;19;20381;-79
2023/02/18 00:33:39;;;;;;;2.67;1.17;;;6.80;99.90;;;;;;7381456;19;20349;-79
2023/02/18 00:36:07;;;;;;;4.20;1.33;;;6.80;99.90;;;;;;7380430;19;20427;-80
2023/02/18 00:38:34;;;;;;;1.52;1.25;;;6.70;99.90;;;;;;7381014;19;20344;-79
2023/02/18 00:41:00;;;;;;;3.38;1.23;;;6.70;99.90;;;;;;7386536;19;20502;-78
2023/02/18 00:43:26;;;;;;;5.90;1.33;;;6.70;99.90;;;;;;7387630;19;20345;-78
2023/02/18 00:45:51;;;;;;;3.53;1.25;;;6.70;99.90;;;;;;7386835;19;20308;-82
2023/02/18 00:48:17;;;;;;;4.50;1.30;;;6.60;99.90;;;;;;7385999;19;21822;-78
2023/02/18 00:50:43;;;;;;;1.92;1.05;;;6.60;99.90;;;;;;7386741;19;20390;-85
2023/02/18 00:53:08;;;;;;;1.93;1.03;;;6.50;99.90;;;;;;7385040;19;20342;-79
2023/02/18 00:55:41;;;;;;;1.75;1.30;;;6.50;99.90;;;;;;7385714;19;20332;-78
2023/02/18 00:58:06;;;;;;;1.85;1.08;;;6.50;99.90;;;;;;7387170;19;20705;-80
2023/02/18 01:00:32;;;;;;;1.73;1.33;;;6.50;99.90;;;;;;7385159;19;20308;-78
2023/02/18 01:02:58;;;;;;;4.30;1.35;;;6.50;99.90;;;;;;7387695;19;20312;-81
2023/02/18 01:05:24;;;;;;;2.30;1.30;;;6.40;99.90;;;;;;7387804;19;20659;-79
2023/02/18 01:07:50;;;;;;;2.85;1.63;;;6.30;99.90;;;;;;7387072;19;20331;-80
2023/02/18 01:10:16;;;;;;;1.93;1.23;;;6.40;99.90;;;;;;7387596;19;20312;-79
2023/02/18 01:12:42;;;;;;;4.15;1.55;;;6.30;99.90;;;;;;7385525;19;20352;-76
2023/02/18 01:15:10;;;;;;;4.03;1.33;;;6.30;99.90;;;;;;7387411;19;20348;-79
2023/02/18 01:17:36;;;;;;;3.63;1.10;;;6.30;99.90;;;;;;7388686;19;20343;-81
2023/02/18 01:20:04;;;;;;;3.53;1.52;;;6.30;99.90;;;;;;7381633;19;20438;-80
2023/02/18 01:22:30;;;;;;;3.15;1.23;;;6.30;99.90;;;;;;7385237;19;20918;-82
2023/02/18 01:24:56;;;;;;;2.33;1.42;;;6.30;99.90;;;;;;7385093;19;20301;-80
2023/02/18 01:27:21;;;;;;;4.20;1.40;;;6.20;99.90;;;;;;7388829;19;20339;-81
2023/02/18 01:29:47;;;;;;;1.57;1.20;;;6.20;99.90;;;;;;7389646;19;20452;-77
2023/02/18 01:32:12;;;;;;;7.05;1.20;;;6.20;99.90;;;;;;7386287;19;20324;-78
2023/02/18 01:34:39;;;;;;;1.85;1.30;;;6.20;99.90;;;;;;7386069;19;20349;-78
2023/02/18 01:37:05;;;;;;;3.67;1.60;;;6.20;99.90;;;;;;7376462;19;20366;-78
2023/02/18 01:39:31;;;;;;;3.88;1.40;;;6.20;99.90;;;;;;7383307;19;20384;-79
2023/02/18 01:41:56;;;;;;;3.37;1.27;;;6.20;99.90;;;;;;7373779;19;20350;-78
2023/02/18 01:44:24;;;;;;;2.53;1.20;;;6.20;99.90;;;;;;7384523;19;20341;-81
2023/02/18 01:46:50;;;;;;;3.37;1.50;;;6.10;99.90;;;;;;7375514;19;20838;-81
2023/02/18 01:49:31;;;;;;;2.93;1.40;;;6.20;99.90;;;;;;7385125;19;20329;-77
2023/02/18 01:52:02;;;;;;;2.60;1.27;;;6.10;99.90;;;;;;7381993;19;20349;-84
2023/02/18 01:54:35;;;;;;;5.55;1.67;;;6.10;99.90;;;;;;7268501;19;2004476;-79
2023/02/18 01:57:05;;;;;;;2.80;1.35;;;6.00;99.90;;;;;;7381415;19;20894;-80
2023/02/18 01:59:37;;;;;;;2.30;1.30;;;6.00;99.90;;;;;;7380644;19;20317;-87
2023/02/18 02:02:06;;;;;;;4.07;1.50;;;6.00;99.90;;;;;;7376221;19;20408;-81
2023/02/18 02:04:32;;;;;;;3.80;1.40;;;6.20;99.90;;;;;;7378509;19;20382;-84
2023/02/18 02:06:58;;;;;;;1.58;1.33;;;6.20;99.90;;;;;;7381928;19;20406;-78
2023/02/18 02:09:25;;;;;;;3.55;1.40;;;6.20;99.90;;;;;;7378974;19;20671;-83
2023/02/18 02:12:29;;;;;;;3.08;1.33;;;6.20;99.90;;;;;;7378649;19;20317;-78
2023/02/18 02:15:20;;;;;;;2.70;1.40;;;6.20;99.90;;;;;;7175398;19;2004786;-84
2023/02/18 02:18:18;;;;;;;3.60;1.47;;;6.10;99.90;;;;;;7279540;19;2004336;-81
2023/02/18 02:21:02;;;;;;;2.95;1.40;;;6.10;99.90;;;;;;7279400;19;2019551;-80
2023/02/18 02:23:58;;;;;;;1.85;1.33;;;6.00;99.90;;;;;;7279193;19;2004545;-79
2023/02/18 02:26:43;;;;;;;2.17;1.37;;;6.00;99.90;;;;;;7377524;19;20351;-85
2023/02/18 02:29:14;;;;;;;3.03;1.42;;;6.00;99.90;;;;;;7278322;19;2004558;-81
2023/02/18 02:31:54;;;;;;;2.72;1.10;;;6.00;99.90;;;;;;7380621;19;20460;-86
2023/02/18 02:34:23;;;;;;;3.25;1.40;;;6.00;99.90;;;;;;7380796;19;20345;-84
2023/02/18 02:36:58;;;;;;;3.47;1.48;;;6.00;99.90;;;;;;7381432;19;20437;-79
2023/02/18 02:39:34;;;;;;;1.80;1.33;;;6.00;99.90;;;;;;7380751;19;20308;-86
2023/02/18 02:42:05;;;;;;;2.20;1.30;;;6.00;99.90;;;;;;7277218;19;2004303;-82
2023/02/18 02:44:40;;;;;;;4.45;1.55;;;5.90;99.90;;;;;;7378766;19;20360;-84
2023/02/18 02:47:13;;;;;;;5.95;1.63;;;5.90;99.90;;;;;;7381234;19;20352;-78
2023/02/18 02:49:54;;;;;;;4.38;1.55;;;5.80;99.90;;;;;;7380407;19;20453;-81
2023/02/18 02:52:33;;;;;;;2.25;1.20;;;5.90;99.90;;;;;;7382280;19;20320;-82
2023/02/18 02:54:59;;;;;;;3.00;1.48;;;5.80;99.90;;;;;;7276850;19;2004563;-81
2023/02/18 02:57:24;;;;;;;3.47;1.57;;;5.80;99.90;;;;;;7383017;19;20315;-80
2023/02/18 03:00:03;;;;;;;4.20;1.57;;;5.80;99.90;;;;;;7276013;19;2004237;-86
2023/02/18 03:02:54;;;;;;;1.57;1.10;;;5.80;99.90;;;;;;7380708;19;20360;-82
2023/02/18 03:05:57;;;;;;;3.53;1.73;;;5.80;99.90;;;;;;7379740;19;20340;-81
2023/02/18 03:08:38;;;;;;;3.95;1.50;;;5.80;99.90;;;;;;7281856;19;2004252;-78
2023/02/18 03:11:06;;;;;;;3.97;1.30;;;5.80;99.90;;;;;;7282152;19;2004274;-78
2023/02/18 03:13:59;;;;;;;4.30;1.57;;;5.70;99.90;;;;;;7383957;19;20329;-85
2023/02/18 03:16:47;;;;;;;2.67;1.20;;;5.70;99.90;;;;;;7283044;19;2004476;-77
2023/02/18 03:19:27;;;;;;;2.40;1.40;;;5.60;99.90;;;;;;7378915;19;20320;-85
2023/02/18 03:22:02;;;;;;;2.20;1.30;;;5.60;99.90;;;;;;7378055;19;21192;-79
2023/02/18 03:24:29;;;;;;;4.95;1.52;;;5.50;99.90;;;;;;7378750;19;20704;-77
2023/02/18 03:27:29;;;;;;;2.33;1.57;;;5.60;99.90;;;;;;7380824;19;20309;-83
2023/02/18 03:30:12;;;;;;;2.90;1.40;;;5.60;99.90;;;;;;7281851;19;2004637;-78
2023/02/18 03:32:37;;;;;;;3.90;1.40;;;5.60;99.90;;;;;;7281308;19;2004742;-78
2023/02/18 03:35:14;;;;;;;2.35;1.42;;;5.60;99.90;;;;;;7379847;19;20309;-83
2023/02/18 03:37:46;;;;;;;2.50;1.37;;;5.60;99.90;;;;;;7381803;19;20355;-85
2023/02/18 03:40:12;;;;;;;3.30;1.48;;;5.60;99.90;;;;;;7378487;19;20313;-75
2023/02/18 03:42:37;;;;;;;2.40;1.60;;;5.70;99.90;;;;;;7383345;19;20336;-80
2023/02/18 03:45:05;;;;;;;3.30;1.60;;;5.70;99.90;;;;;;7380019;19;20363;-78
2023/02/18 03:47:31;;;;;;;2.33;1.42;;;5.70;99.90;;;;;;7370647;19;20313;-86
2023/02/18 03:49:57;;;;;;;4.22;1.58;;;5.70;99.90;;;;;;7380160;19;20332;-82
2023/02/18 03:52:23;;;;;;;2.20;1.35;;;5.80;99.90;;;;;;7377759;19;20431;-81
2023/02/18 03:54:49;;;;;;;4.00;1.40;;;5.80;99.90;;;;;;7376726;19;20304;-85
2023/02/18 03:57:15;;;;;;;2.03;1.30;;;5.90;99.90;;;;;;7376780;19;20673;-83
2023/02/18 03:59:41;;;;;;;1.50;1.20;;;5.80;99.90;;;;;;7380590;19;20750;-79
2023/02/18 04:02:06;;;;;;;3.25;1.48;;;5.90;99.90;;;;;;7379007;19;20352;-81
2023/02/18 04:04:32;;;;;;;3.67;1.43;;;5.90;99.90;;;;;;7376277;19;20313;-81
2023/02/18 04:06:57;;;;;;;1.80;1.30;;;5.90;99.90;;;;;;7380189;19;20315;-80
2023/02/18 04:09:23;;;;;;;1.93;1.30;;;5.90;99.90;;;;;;7381216;19;20338;-78
2023/02/18 04:11:49;;;;;;;3.25;1.50;;;5.90;99.90;;;;;;7379228;19;20445;-82
2023/02/18 04:14:15;;;;;;;2.10;1.35;;;5.90;99.90;;;;;;7388200;19;20832;-83
2023/02/18 04:16:40;;;;;;;4.33;1.50;;;5.90;99.90;;;;;;7386918;19;20324;-81
2023/02/18 04:19:06;;;;;;;1.95;1.17;;;5.90;99.90;;;;;;7387395;19;20316;-78
2023/02/18 04:21:32;;;;;;;5.57;2.27;;;6.00;99.90;;;;;;7385516;19;20335;-78
2023/02/18 04:23:57;;;;;;;3.95;1.50;;;5.90;99.90;;;;;;7387078;19;20320;-80
2023/02/18 04:26:23;;;;;;;1.83;1.30;;;5.90;99.90;;;;;;7386842;19;21094;-78
2023/02/18 04:28:49;;;;;;;5.70;1.30;;;6.00;99.90;;;;;;7387571;19;20325;-79
2023/02/18 04:31:15;;;;;;;2.57;1.37;;;6.00;99.90;;;;;;7387878;19;20323;-76
2023/02/18 04:33:41;;;;;;;2.97;1.40;;;6.00;99.90;;;;;;7385370;19;20366;-80
2023/02/18 04:36:07;;;;;;;2.33;1.30;;;6.10;99.90;;;;;;7385337;19;20956;-77
2023/02/18 04:38:32;;;;;;;3.67;1.42;;;6.10;99.90;;;;;;7387013;19;20337;-81
2023/02/18 04:40:58;;;;;;;2.60;1.20;;;6.20;99.90;;;;;;7389049;19;20329;-85
2023/02/18 04:43:23;;;;;;;6.93;1.50;;;6.20;99.90;;;;;;7386200;19;20349;-78
2023/02/18 04:45:49;;;;;;;3.70;1.20;;;6.20;99.90;;;;;;7387727;19;20305;-75
2023/02/18 04:48:14;;;;;;;1.73;1.17;;;6.20;99.90;;;;;;7385957;19;20870;-80
2023/02/18 04:50:40;;;;;;;2.37;1.23;;;6.30;99.90;;;;;;7388316;19;20320;-79
2023/02/18 04:53:06;;;;;;;2.28;1.40;;;6.20;99.90;;;;;;7384748;19;20496;-81
2023/02/18 04:55:31;;;;;;;4.00;1.33;;;6.30;99.90;;;;;;7383704;19;20684;-78
2023/02/18 04:57:57;;;;;;;3.58;1.40;;;6.30;99.90;;;;;;7386442;19;20391;-82
2023/02/18 05:00:22;;;;;;;2.30;1.10;;;6.30;99.90;;;;;;7381902;19;20826;-79
2023/02/18 05:02:48;;;;;;;3.15;1.20;;;6.30;99.90;;;;;;7383576;19;20316;-82
2023/02/18 05:05:14;;;;;;;2.50;1.10;;;6.30;99.90;;;;;;7383162;19;20346;-82
2023/02/18 05:07:41;;;;;;;1.58;1.17;;;6.40;99.90;;;;;;7382294;19;20347;-81
2023/02/18 05:10:07;;;;;;;1.53;1.30;;;6.40;99.90;;;;;;7382096;19;20332;-81
2023/02/18 05:12:33;;;;;;;2.45;1.20;;;6.40;99.90;;;;;;7382137;19;20312;-84
2023/02/18 05:14:59;;;;;;;1.80;1.17;;;6.40;99.90;;;;;;7382083;19;20316;-80
2023/02/18 05:17:24;;;;;;;2.00;1.27;;;6.40;99.90;;;;;;7384432;19;20323;-79
2023/02/18 05:19:50;;;;;;;3.93;1.30;;;6.50;99.90;;;;;;7383036;19;20344;-82
2023/02/18 05:22:15;;;;;;;1.92;1.30;;;6.50;99.90;;;;;;7381989;19;20360;-81
2023/02/18 05:24:41;;;;;;;1.30;1.20;;;6.50;99.90;;;;;;7379724;19;20352;-84
2023/02/18 05:27:07;;;;;;;4.38;1.50;;;6.50;99.90;;;;;;7379138;19;20309;-82
2023/02/18 05:29:32;;;;;;;2.63;1.30;;;6.50;99.90;;;;;;7384493;19;20333;-78
2023/02/18 05:31:58;;;;;;;1.38;1.13;;;6.50;99.90;;;;;;7382785;19;20342;-82
2023/02/18 05:34:23;;;;;;;2.80;1.27;;;6.50;99.90;;;;;;7383318;19;20313;-80
2023/02/18 05:36:49;;;;;;;2.08;1.30;;;6.60;99.90;;;;;;7380685;19;20315;-81
2023/02/18 05:39:15;;;;;;;1.33;1.10;;;6.60;99.90;;;;;;7384501;19;20319;-77
2023/02/18 05:41:40;;;;;;;3.25;1.42;;;6.60;99.90;;;;;;7386523;19;20648;-79
2023/02/18 05:46:51;;;;;;;3.05;1.30;;;6.60;99.90;;;;;;7386862;19;20692;-81
2023/02/18 05:49:17;;;;;;;2.97;1.27;;;6.70;99.90;;;;;;7385773;19;20977;-77
2023/02/18 05:51:42;;;;;;;2.27;1.30;;;6.60;99.90;;;;;;7385264;19;20345;-83
2023/02/18 05:54:08;;;;;;;1.03;0.90;;;6.70;99.90;;;;;;7377780;19;20333;-79
2023/02/18 05:56:33;;;;;;;2.40;1.30;;;6.60;99.90;;;;;;7381052;19;20305;-79
2023/02/18 05:58:59;;;;;;;2.95;1.20;;;6.60;99.90;;;;;;7379266;19;20317;-77
2023/02/18 06:01:26;;;;;;;1.73;1.20;;;6.60;99.90;;;;;;7372874;19;20335;-79
2023/02/18 06:03:51;;;;;;;1.80;1.20;;;6.60;99.90;;;;;;7385862;19;20685;-76
2023/02/18 06:06:17;;;;;;;2.57;1.20;;;6.70;99.90;;;;;;7382966;19;20328;-78
2023/02/18 06:08:43;;;;;;;2.78;1.23;;;6.70;99.90;;;;;;7384661;19;20329;-78
2023/02/18 06:11:08;;;;;;;2.77;1.30;;;6.70;99.90;;;;;;7385000;19;20996;-78
2023/02/18 06:13:34;;;;;;;3.70;1.55;;;6.70;99.90;;;;;;7384669;19;21206;-76
2023/02/18 06:16:00;;;;;;;2.00;1.40;;;6.70;99.90;;;;;;7364888;19;20305;-79
2023/02/18 06:18:25;;;;;;;4.03;1.65;;;6.70;99.90;;;;;;7384724;19;20341;-82
2023/02/18 06:20:51;;;;;;;2.27;1.07;;;6.70;99.90;;;;;;7386779;19;20339;-78
2023/02/18 06:23:16;;;;;;;1.48;1.27;;;6.70;99.90;;;;;;7379206;19;20351;-82
2023/02/18 06:25:42;;;;;;;3.83;1.30;;;6.70;99.90;;;;;;7378558;19;20683;-78
2023/02/18 06:28:07;;;;;;;3.03;1.60;;;6.70;99.90;;;;;;7378587;19;20333;-77
2023/02/18 06:30:33;;;;;;;2.37;1.30;;;6.70;99.90;;;;;;7385508;19;20704;-81
2023/02/18 06:32:59;;;;;;;2.40;1.40;;;6.90;99.90;;;;;;7388577;19;20320;-78
2023/02/18 06:35:24;;;;;;;1.73;1.20;;;6.70;99.90;;;;;;7382200;19;20325;-80
2023/02/18 06:37:50;;;;;;;2.40;1.47;;;6.70;99.90;;;;;;7387476;19;20369;-78
2023/02/18 06:40:17;;;;;;;1.70;1.20;;;6.70;99.90;;;;;;7385427;19;20345;-81
2023/02/18 06:42:42;;;;;;;3.42;1.60;;;6.80;99.90;;;;;;7380720;19;20861;-79
2023/02/18 06:45:08;;;;;;;2.30;1.60;;;6.80;99.90;;;;;;7377400;19;20416;-83
2023/02/18 06:47:34;;;;;;;2.95;1.95;;;6.90;99.90;;;;;;7379559;19;20329;-79
2023/02/18 06:49:59;;;;;;;4.07;1.37;;;6.90;99.90;;;;;;7377794;19;20805;-82
2023/02/18 06:52:25;;;;;;;1.27;1.15;;;6.90;99.90;;;;;;7381657;19;20888;-82
2023/02/18 06:54:50;;;;;;;1.27;1.10;;;6.90;99.90;;;;;;7377018;19;20324;-81
2023/02/18 06:57:16;;;;;;;4.55;1.48;;;6.90;99.90;;;;;;7381456;19;20395;-77
2023/02/18 06:59:42;;;;;;;2.60;1.60;;;6.90;99.90;;;;;;7385342;19;20719;-82
2023/02/18 07:02:10;;;;;;;2.75;1.40;;;6.90;99.90;;;;;;7385178;19;20862;-79
2023/02/18 07:04:35;;;;;;;3.00;1.40;;;6.90;99.90;;;;;;7381730;19;20378;-79
2023/02/18 07:07:01;;;;;;;2.43;1.70;;;7.00;99.90;;;;;;7383332;19;20312;-82
2023/02/18 07:09:26;;;;;;;2.60;1.80;;;7.00;99.90;;;;;;7385608;19;20331;-77
2023/02/18 07:11:52;;;;;;;1.35;1.10;;;7.00;99.90;;;;;;7384281;19;20781;-77
2023/02/18 07:14:18;;;;;;;6.00;2.10;;;7.00;99.90;;;;;;7379280;19;20336;-79
2023/02/18 07:16:43;;;;;;;4.10;2.25;;;7.00;99.90;;;;;;7381105;19;20340;-77
2023/02/18 07:19:09;;;;;;;2.73;1.50;;;7.00;99.90;;;;;;7381701;19;20328;-80
2023/02/18 07:21:34;;;;;;;1.73;1.50;;;7.00;99.90;;;;;;7383206;19;20313;-81
2023/02/18 07:24:00;;;;;;;2.00;1.50;;;7.00;99.90;;;;;;7382284;19;20344;-80
2023/02/18 07:26:25;;;;;;;3.20;1.83;;;7.00;99.90;;;;;;7386730;19;20316;-78
2023/02/18 07:28:51;;;;;;;1.52;1.20;;;7.00;99.90;;;;;;7385388;19;20360;-77
2023/02/18 07:31:17;;;;;;;2.37;1.27;;;7.00;99.90;;;;;;7385287;19;20328;-76
2023/02/18 07:33:42;;;;;;;1.10;1.10;;;6.90;99.90;;;;;;7385280;19;21020;-79
2023/02/18 07:36:08;;;;;;;1.53;1.03;;;6.90;99.90;;;;;;7384653;19;20321;-80
2023/02/18 07:38:34;;;;;;;3.15;1.20;;;6.80;99.90;;;;;;7384536;19;20369;-78
2023/02/18 07:40:59;;;;;;;1.73;1.10;;;6.70;99.90;;;;;;7380301;19;20317;-78
2023/02/18 07:43:25;;;;;;;1.05;1.00;;;6.60;99.90;;;;;;7381228;19;20902;-86
2023/02/18 07:45:50;;;;;;;1.30;1.20;;;6.50;99.90;;;;;;7379911;19;21171;-85
2023/02/18 07:48:16;;;;;;;1.67;1.25;;;6.40;99.90;;;;;;7379514;19;20458;-82
2023/02/18 07:50:43;;;;;;;1.33;1.10;;;6.30;99.90;;;;;;7357111;19;20416;-79
2023/02/18 07:53:10;;;;;;;1.50;1.03;;;6.30;99.90;;;;;;7380131;19;20316;-78
2023/02/18 07:55:48;;;;;;;2.30;1.00;;;6.30;99.90;;;;;;7382991;19;20381;-78
2023/02/18 07:58:20;;;;;;;2.03;1.20;;;6.30;99.90;;;;;;7386002;19;20353;-86
2023/02/18 08:00:49;;;;;;;2.38;1.45;;;6.20;99.90;;;;;;7385481;19;20337;-76
2023/02/18 08:03:17;;;;;;;2.20;1.15;;;6.20;99.90;;;;;;7388119;19;20326;-78
2023/02/18 08:05:44;;;;;;;1.40;1.05;;;6.10;99.90;;;;;;7380878;19;20343;-79
2023/02/18 08:08:13;;;;;;;1.80;1.23;;;6.10;99.90;;;;;;7378223;19;20320;-82
2023/02/18 08:10:39;;;;;;;1.73;1.20;;;6.10;99.90;;;;;;7377703;19;20448;-81
2023/02/18 08:13:04;;;;;;;2.33;1.17;;;6.00;99.90;;;;;;7378723;19;20320;-80
2023/02/18 08:15:30;;;;;;;2.43;1.40;;;5.90;99.90;;;;;;7381786;19;20319;-79
2023/02/18 08:17:56;;;;;;;2.70;0.93;;;5.90;99.90;;;;;;7382778;19;20344;-81
2023/02/18 08:20:21;;;;;;;1.30;0.90;;;5.90;99.90;;;;;;7382648;19;20305;-84
2023/02/18 08:22:47;;;;;;;2.20;1.00;;;5.90;99.90;;;;;;7382459;19;20351;-79
2023/02/18 08:25:13;;;;;;;0.80;0.80;;;5.90;99.90;;;;;;7377459;19;20476;-81
2023/02/18 08:27:38;;;;;;;0.90;0.90;;;5.90;99.90;;;;;;7378416;19;20348;-81
2023/02/18 08:30:04;;;;;;;1.60;1.10;;;6.00;99.90;;;;;;7380095;19;20340;-78
2023/02/18 08:32:30;;;;;;;1.92;1.20;;;6.00;99.90;;;;;;7379187;19;20364;-83
2023/02/18 08:34:56;;;;;;;1.30;1.20;;;6.00;99.90;;;;;;7377863;19;20358;-81
2023/02/18 08:37:22;;;;;;;2.90;1.50;;;6.10;99.90;;;;;;7376042;19;20316;-78
2023/02/18 08:39:48;;;;;;;3.53;1.05;;;6.10;99.90;;;;;;7378831;19;20349;-84
2023/02/18 08:42:13;;;;;;;1.40;1.23;;;6.20;99.90;;;;;;7380791;19;20872;-83
2023/02/18 08:44:40;;;;;;;1.27;1.00;;;6.20;99.90;;;;;;7378192;19;20364;-85
2023/02/18 08:47:06;;;;;;;1.50;1.10;;;6.20;99.90;;;;;;7381596;19;20328;-83
2023/02/18 08:49:31;;;;;;;1.90;1.38;;;6.20;99.90;;;;;;7377526;19;21442;-79
2023/02/18 08:51:57;;;;;;;3.20;1.47;;;6.20;99.90;;;;;;7382986;19;20961;-79
2023/02/18 08:54:23;;;;;;;3.80;1.15;;;6.30;99.90;;;;;;7380343;19;20328;-79
2023/02/18 08:56:48;;;;;;;2.37;1.23;;;6.30;99.90;;;;;;7382130;19;21111;-81
2023/02/18 08:59:14;;;;;;;3.63;2.70;;;6.40;99.90;;;;;;7382939;19;20342;-82
2023/02/18 09:01:39;;;;;;;5.27;2.60;;;6.50;99.90;;;;;;7389773;19;20351;-79
2023/02/18 09:04:05;;;;;;;4.82;2.95;;;6.60;99.90;;;;;;7386983;19;20735;-81
2023/02/18 09:06:36;;;;;;;2.00;1.20;;;6.60;99.90;;;;;;7389816;19;20324;-84
2023/02/18 09:09:02;;;;;;;3.78;1.45;;;6.60;99.90;;;;;;7381765;19;20356;-88
2023/02/18 09:11:28;;;;;;;1.15;1.10;;;6.70;99.90;;;;;;7385325;19;20330;-87
2023/02/18 09:13:53;;;;;;;3.20;1.55;;;6.70;99.90;;;;;;7384828;19;20321;-81
2023/02/18 09:16:19;;;;;;;5.23;3.53;;;6.70;99.90;;;;;;7387018;19;21814;-85
2023/02/18 09:18:46;;;;;;;6.28;3.83;;;6.70;99.90;;;;;;7383788;19;20340;-80
2023/02/18 09:21:14;;;;;;;1.88;1.00;;;6.90;99.90;;;;;;7380252;19;20324;-78
2023/02/18 09:23:40;;;;;;;6.73;3.80;;;6.90;99.90;;;;;;7386269;19;20377;-80
2023/02/18 09:26:07;;;;;;;2.87;2.10;;;6.90;99.90;;;;;;7385261;19;20330;-79
2023/02/18 09:28:33;;;;;;;8.90;3.05;;;6.90;99.90;;;;;;7382349;19;20343;-86
2023/02/18 09:31:07;;;;;;;2.47;1.95;;;7.00;99.90;;;;;;7385110;19;20317;-79
2023/02/18 09:33:36;;;;;;;3.13;2.22;;;6.90;99.90;;;;;;7280514;19;2004348;-79
2023/02/18 09:36:02;;;;;;;3.50;1.90;;;7.00;99.90;;;;;;7385948;19;20421;-80
2023/02/18 09:38:27;;;;;;;5.60;3.63;;;7.00;99.90;;;;;;7376039;19;20337;-82
2023/02/18 09:40:53;;;;;;;4.53;2.90;;;7.10;99.90;;;;;;7385645;19;20339;-81
2023/02/18 09:43:29;;;;;;;5.05;2.10;;;7.10;99.90;;;;;;7384746;19;20396;-81
2023/02/18 09:45:55;;;;;;;3.90;1.55;;;7.00;99.90;;;;;;7386205;19;20357;-79
2023/02/18 09:48:27;;;;;;;3.63;1.60;;;7.00;99.90;;;;;;7384720;19;20862;-83
2023/02/18 09:50:53;;;;;;;2.08;1.45;;;7.00;99.90;;;;;;7390040;19;20312;-81
2023/02/18 09:53:20;;;;;;;2.10;1.35;;;7.00;99.90;;;;;;7383277;19;20336;-84
2023/02/18 09:55:46;;;;;;;2.70;1.53;;;7.00;99.90;;;;;;7382301;19;20349;-81
2023/02/18 09:58:13;;;;;;;3.33;1.83;;;7.10;99.90;;;;;;7383696;19;20866;-80
2023/02/18 10:00:42;;;;;;;2.13;1.60;;;7.10;99.90;;;;;;7383068;19;20713;-79
2023/02/18 10:03:18;;;;;;;2.75;1.80;;;7.10;99.90;;;;;;7382438;19;20354;-86
2023/02/18 10:05:58;;;;;;;3.00;1.77;;;7.00;99.90;;;;;;7383139;19;20680;-82
2023/02/18 10:08:26;;;;;;;2.90;1.52;;;6.90;99.90;;;;;;7385319;19;20320;-79
2023/02/18 10:10:52;;;;;;;4.03;1.87;;;6.90;99.90;;;;;;7381803;19;21162;-76
2023/02/18 10:13:23;;;;;;;1.90;1.58;;;6.80;99.90;;;;;;7382879;19;20338;-81
2023/02/18 10:15:50;;;;;;;3.72;1.83;;;6.90;99.90;;;;;;7384650;19;20345;-80
2023/02/18 10:18:37;;;;;;;2.90;1.57;;;6.90;99.90;;;;;;7381438;19;20325;-81
2023/02/18 10:21:10;;;;;;;2.40;1.60;;;6.90;99.90;;;;;;7275602;19;2013056;-80
2023/02/18 10:23:39;;;;;;;2.25;1.83;;;6.90;99.90;;;;;;7383279;19;20335;-79
2023/02/18 10:26:08;;;;;;;2.05;1.60;;;6.90;99.90;;;;;;7385781;19;20427;-82
2023/02/18 10:28:35;;;;;;;2.75;2.08;;;6.90;99.90;;;;;;7384530;19;20332;-80
2023/02/18 10:31:09;;;;;;;3.92;2.65;;;7.00;99.90;;;;;;7382851;19;20308;-81
2023/02/18 10:33:46;;;;;;;4.15;2.90;;;7.00;99.90;;;;;;7382576;19;20392;-79
2023/02/18 10:36:33;;;;;;;3.83;2.33;;;7.00;99.90;;;;;;7381088;19;20353;-78
2023/02/18 10:39:31;;;;;;;3.33;2.10;;;7.00;99.90;;;;;;7377601;19;20849;-81
2023/02/18 10:42:16;;;;;;;3.45;2.00;;;7.10;99.90;;;;;;7282779;19;2004449;-82
2023/02/18 10:44:55;;;;;;;3.33;1.87;;;7.10;99.90;;;;;;7279298;19;2004421;-78
2023/02/18 10:47:34;;;;;;;3.58;2.15;;;7.00;99.90;;;;;;7382924;19;20898;-78
2023/02/18 10:50:26;;;;;;;4.35;2.08;;;7.10;99.90;;;;;;7385267;19;21165;-79
2023/02/18 10:52:56;;;;;;;4.03;2.00;;;7.00;99.90;;;;;;7245291;19;2004322;-87
2023/02/18 10:55:40;;;;;;;4.72;2.08;;;7.10;99.90;;;;;;7375514;19;20329;-80
2023/02/18 10:58:27;;;;;;;5.07;2.10;;;7.00;99.90;;;;;;7269241;19;2004599;-81
2023/02/18 11:00:53;;;;;;;4.53;2.17;;;7.00;99.90;;;;;;7371288;19;20421;-82
2023/02/18 11:03:21;;;;;;;5.80;4.17;;;7.00;99.90;;;;;;7363466;19;20360;-82
2023/02/18 11:05:49;;;;;;;6.28;4.57;;;7.10;99.90;;;;;;7368264;19;20361;-77
2023/02/18 11:08:20;;;;;;;2.72;2.08;;;7.00;99.90;;;;;;7387435;19;20367;-78
2023/02/18 11:10:51;;;;;;;8.18;4.88;;;7.10;99.90;;;;;;7386387;19;21825;-79
2023/02/18 11:13:22;;;;;;;6.97;4.40;;;7.10;99.90;;;;;;7389971;19;20320;-81
2023/02/18 11:15:56;;;;;;;2.85;2.55;;;7.20;99.90;;;;;;7381502;19;20636;-79
2023/02/18 11:18:27;;;;;;;2.38;1.77;;;7.20;99.90;;;;;;7365120;19;20340;-77
2023/02/18 11:21:01;;;;;;;2.10;1.52;;;7.30;99.90;;;;;;7387477;19;20349;-77
2023/02/18 11:23:26;;;;;;;1.40;1.30;;;7.30;99.90;;;;;;7381423;19;20877;-78
2023/02/18 11:26:06;;;;;;;2.87;1.90;;;7.30;99.90;;;;;;7380517;19;20471;-80
2023/02/18 11:28:40;;;;;;;2.00;1.70;;;7.30;99.90;;;;;;7278257;19;2004396;-81
2023/02/18 11:31:06;;;;;;;2.45;1.60;;;7.40;99.90;;;;;;7382841;19;20324;-78
2023/02/18 11:33:40;;;;;;;1.63;1.52;;;7.40;99.90;;;;;;7374603;19;20738;-78
2023/02/18 11:36:22;;;;;;;2.37;2.10;;;7.30;99.90;;;;;;7378942;19;20339;-78
2023/02/18 11:38:58;;;;;;;1.63;1.52;;;7.30;99.90;;;;;;7374925;19;20348;-79
2023/02/18 11:41:36;;;;;;;1.63;1.50;;;7.30;99.90;;;;;;7381570;19;20372;-78
2023/02/18 11:44:04;;;;;;;2.85;2.65;;;7.20;99.90;;;;;;7275449;19;2018944;-80
2023/02/18 11:46:30;;;;;;;2.60;2.40;;;7.20;99.90;;;;;;7381306;19;20392;-83
2023/02/18 11:48:56;;;;;;;2.42;2.22;;;7.30;99.90;;;;;;7375767;19;20853;-77
2023/02/18 11:51:27;;;;;;;1.77;1.67;;;7.20;99.90;;;;;;7379004;19;20333;-81
2023/02/18 11:53:54;;;;;;;14.45;8.18;;;7.30;99.90;;;;;;7380266;19;20316;-79
2023/02/18 11:56:20;;;;;;;2.30;2.10;;;7.20;99.90;;;;;;7384603;19;20367;-80
2023/02/18 11:58:46;;;;;;;2.43;2.00;;;7.20;99.90;;;;;;7381641;19;21028;-80
2023/02/18 12:01:19;;;;;;;1.77;1.60;;;7.20;99.90;;;;;;7383604;19;20338;-79
2023/02/18 12:04:06;;;;;;;4.85;2.95;;;7.30;99.90;;;;;;7384131;19;20321;-80
2023/02/18 12:06:55;;;;;;;4.32;2.42;;;7.40;99.90;;;;;;7282987;19;2004392;-82
2023/02/18 12:09:42;;;;;;;1.90;1.80;;;7.40;99.90;;;;;;7383043;19;20317;-82
2023/02/18 12:12:25;;;;;;;1.80;1.70;;;7.40;99.90;;;;;;7279511;19;2015691;-82
2023/02/18 12:14:52;;;;;;;3.58;3.08;;;7.40;99.90;;;;;;7381488;19;20309;-79
2023/02/18 12:18:11;;;;;;;6.07;4.07;;;7.50;99.90;;;;;;7379979;19;20413;-80
2023/02/18 12:20:53;;;;;;;13.93;8.63;;;7.60;99.90;;;;;;7174250;19;2004581;-82
2023/02/18 12:23:31;;;;;;;3.83;3.43;;;7.70;99.90;;;;;;7377301;19;20328;-80
2023/02/18 12:26:10;;;;;;;6.80;4.80;;;7.70;99.90;;;;;;7377389;19;20354;-80
2023/02/18 12:28:49;;;;;;;5.18;3.50;;;7.80;99.90;;;;;;7276122;19;2004517;-79
2023/02/18 12:31:36;;;;;;;3.53;3.22;;;7.90;99.90;;;;;;7375569;19;20408;-80
2023/02/18 12:34:41;;;;;;;3.90;2.90;;;7.90;99.90;;;;;;7279155;19;2019877;-81
2023/02/18 12:37:25;;;;;;;2.70;2.50;;;8.00;99.90;;;;;;7282943;19;2005628;-78
2023/02/18 12:40:28;;;;;;;2.63;2.42;;;8.10;99.90;;;;;;7387776;19;21190;-79
2023/02/18 12:43:10;;;;;;;2.55;2.35;;;8.20;99.90;;;;;;7283926;19;2004346;-79
2023/02/18 12:45:54;;;;;;;3.33;2.72;;;8.30;99.90;;;;;;7282532;19;2004235;-81
2023/02/18 12:48:59;;;;;;;2.83;2.63;;;8.40;99.90;;;;;;7385227;19;20320;-80
2023/02/18 12:51:35;;;;;;;3.27;2.97;;;8.40;99.90;;;;;;7284128;19;2004510;-79
2023/02/18 12:54:26;;;;;;;4.50;3.40;;;8.50;99.90;;;;;;7386806;19;20305;-80
2023/02/18 12:56:57;;;;;;;2.80;2.60;;;8.60;99.90;;;;;;7286022;19;2004600;-78
2023/02/18 12:59:48;;;;;;;2.30;2.10;;;8.80;99.90;;;;;;7386597;19;20853;-80
2023/02/18 13:02:28;;;;;;;2.03;1.92;;;8.90;99.90;;;;;;7284284;19;2019649;-80
2023/02/18 13:05:31;;;;;;;2.00;1.90;;;8.90;99.90;;;;;;7388183;19;20665;-86
2023/02/18 13:08:22;;;;;;;3.78;2.22;;;9.00;99.90;;;;;;7287755;19;2004464;-83
2023/02/18 13:10:53;;;;;;;2.10;2.00;;;9.10;99.90;;;;;;7288366;19;2016881;-79
2023/02/18 13:13:24;;;;;;;1.85;1.75;;;9.20;99.90;;;;;;7387862;19;20312;-80
2023/02/18 13:15:55;;;;;;;3.50;2.17;;;9.20;99.90;;;;;;7388911;19;20379;-82